Time;durP1;ratioP1;P1;durP2;ratioP2;P2;SDS_P1;SDS_P2;PMS_P1;PMS_P2;Temp;Humidity;BMP_temperature;BMP_pressure;BME280_temperature;BME280_humidity;BME280_pressure;Samples;Min_cycle;Max_cycle;Signal;HPM_P1;HPM_P2
2023/05/28 00:01:51;;;;;;;12.17;4.37;;;;;;;11.68;87.02;101487.91;6050154;28;20262;-68
2023/05/28 00:04:46;;;;;;;7.37;4.63;;;;;;;12.05;83.93;101495.31;6039371;28;20027;-68
2023/05/28 00:07:42;;;;;;;9.30;4.00;;;;;;;11.20;86.84;101508.91;6016780;28;20041;-67
2023/05/28 00:10:37;;;;;;;9.85;4.15;;;;;;;10.64;89.97;101494.25;6026461;28;20034;-68
2023/05/28 00:13:32;;;;;;;9.03;4.10;;;;;;;10.33;91.92;101487.97;6025116;28;20038;-68
2023/05/28 00:16:28;;;;;;;14.37;4.30;;;;;;;10.39;92.80;101503.41;6026244;28;20018;-67
2023/05/28 00:19:23;;;;;;;7.32;3.90;;;;;;;10.31;95.01;101497.03;6025621;28;20034;-67
2023/05/28 00:22:18;;;;;;;7.57;3.83;;;;;;;11.14;91.88;101479.41;6025523;28;20077;-67
2023/05/28 00:25:14;;;;;;;8.13;3.87;;;;;;;11.04;88.15;101481.13;6018436;28;20101;-67
2023/05/28 00:28:09;;;;;;;9.87;3.83;;;;;;;10.51;90.74;101486.50;6025491;28;20347;-67
2023/05/28 00:31:04;;;;;;;7.68;3.65;;;;;;;10.68;92.26;101470.00;6025254;28;20273;-67
2023/05/28 00:34:00;;;;;;;8.80;3.77;;;;;;;10.80;91.29;101476.09;6028353;28;20041;-67
2023/05/28 00:36:56;;;;;;;10.73;3.63;;;;;;;11.25;88.04;101480.16;6049591;28;20272;-67
2023/05/28 00:39:51;;;;;;;9.63;3.50;;;;;;;10.92;87.51;101484.84;6015276;28;20039;-67
2023/05/28 00:42:46;;;;;;;11.80;4.38;;;;;;;10.41;90.83;101485.53;6017926;28;20584;-67
2023/05/28 00:45:42;;;;;;;12.10;3.50;;;;;;;9.99;92.82;101483.72;6031599;28;20026;-67
2023/05/28 00:48:38;;;;;;;11.17;4.00;;;;;;;10.08;95.09;101490.94;6049744;28;20103;-67
2023/05/28 00:51:35;;;;;;;9.45;3.58;;;;;;;9.69;95.37;101483.50;6043659;28;20037;-66
2023/05/28 00:54:30;;;;;;;10.32;4.05;;;;;;;10.19;96.67;101495.38;6032734;28;20034;-67
2023/05/28 00:57:26;;;;;;;8.13;3.58;;;;;;;10.46;93.07;101491.31;6027904;28;20038;-68
2023/05/28 01:00:21;;;;;;;8.73;3.58;;;;;;;11.13;91.38;101477.72;6018627;28;20374;-68
2023/05/28 01:03:17;;;;;;;10.38;4.35;;;;;;;11.10;88.36;101483.28;6021694;28;20034;-68
2023/05/28 01:06:14;;;;;;;12.25;4.50;;;;;;;10.84;90.63;101474.88;6025974;28;20030;-68
2023/05/28 01:09:11;;;;;;;12.30;4.88;;;;;;;11.21;88.70;101484.06;6030588;28;20157;-68
2023/05/28 01:12:06;;;;;;;11.50;4.47;;;;;;;10.70;89.51;101481.34;6025978;28;20030;-68
2023/05/28 01:15:02;;;;;;;12.98;6.10;;;;;;;10.74;90.37;101474.78;6030134;28;20037;-68
2023/05/28 01:17:59;;;;;;;12.25;5.03;;;;;;;11.23;88.65;101454.69;6030345;28;20034;-68
2023/05/28 01:20:55;;;;;;;16.10;5.75;;;;;;;11.66;85.32;101457.16;6028157;28;20073;-67
2023/05/28 01:23:51;;;;;;;11.63;5.90;;;;;;;11.52;84.98;101458.34;6026527;28;20470;-68
2023/05/28 01:26:47;;;;;;;13.73;5.72;;;;;;;11.57;86.03;101471.22;6025896;28;20057;-68
2023/05/28 01:29:42;;;;;;;12.02;5.13;;;;;;;11.13;84.42;101453.81;6027991;28;20038;-68
2023/05/28 01:32:38;;;;;;;10.43;4.73;;;;;;;11.09;88.81;101460.34;6027727;28;20148;-68
2023/05/28 01:35:33;;;;;;;12.57;4.88;;;;;;;11.29;86.96;101448.88;6029020;28;20030;-67
2023/05/28 01:38:28;;;;;;;13.30;4.33;;;;;;;11.43;85.85;101467.13;6029880;28;20038;-68
2023/05/28 01:41:25;;;;;;;13.93;5.00;;;;;;;10.80;86.08;101454.88;6026304;28;20037;-68
2023/05/28 01:44:20;;;;;;;9.55;4.47;;;;;;;10.89;89.51;101461.22;6028300;28;20061;-67
2023/05/28 01:47:15;;;;;;;10.50;4.70;;;;;;;10.57;89.23;101451.47;6029739;28;20030;-68
2023/05/28 01:50:11;;;;;;;10.75;4.50;;;;;;;10.37;89.12;101454.13;6020654;28;20035;-68
2023/05/28 01:53:06;;;;;;;10.30;4.87;;;;;;;9.97;92.33;101462.63;6030297;28;20022;-68
2023/05/28 01:56:02;;;;;;;11.77;5.13;;;;;;;10.58;92.29;101453.19;6038863;28;20409;-68
2023/05/28 01:58:57;;;;;;;12.87;4.47;;;;;;;10.86;88.68;101437.59;6039317;28;20034;-68
2023/05/28 02:01:52;;;;;;;9.77;4.63;;;;;;;10.48;88.38;101452.28;6029344;28;20367;-68
2023/05/28 02:04:47;;;;;;;10.80;4.93;;;;;;;10.23;91.04;101455.25;6027008;28;20035;-68
2023/05/28 02:07:43;;;;;;;13.87;5.60;;;;;;;10.31;90.36;101444.84;6026746;28;20512;-67
2023/05/28 02:10:38;;;;;;;10.60;4.93;;;;;;;9.57;91.70;101438.50;6028844;28;20022;-68
2023/05/28 02:13:33;;;;;;;13.70;4.50;;;;;;;9.41;92.52;101443.31;6024754;28;20451;-68
2023/05/28 02:16:29;;;;;;;12.43;4.80;;;;;;;9.23;93.87;101431.53;6021266;28;20034;-67
2023/05/28 02:19:24;;;;;;;11.15;4.70;;;;;;;8.81;95.85;101429.53;6026888;28;20275;-68
2023/05/28 02:22:20;;;;;;;13.70;5.33;;;;;;;8.49;97.56;101437.28;6028782;28;20023;-67
2023/05/28 02:25:15;;;;;;;14.07;5.33;;;;;;;8.24;99.51;101432.94;6028052;28;20373;-67
2023/05/28 02:28:10;;;;;;;12.40;4.50;;;;;;;8.28;100.00;101445.00;6021255;28;20042;-67
2023/05/28 02:31:06;;;;;;;10.97;4.47;;;;;;;8.12;100.00;101438.28;6028690;28;20085;-67
2023/05/28 02:34:01;;;;;;;14.47;5.20;;;;;;;8.02;100.00;101453.94;6027783;28;20113;-68
2023/05/28 02:36:56;;;;;;;12.63;5.67;;;;;;;7.88;100.00;101438.25;6028480;28;20026;-67
2023/05/28 02:39:52;;;;;;;12.40;4.95;;;;;;;7.92;100.00;101444.16;6027087;28;20462;-68
2023/05/28 02:42:47;;;;;;;14.33;5.57;;;;;;;7.78;100.00;101439.88;6019193;28;20033;-67
2023/05/28 02:45:42;;;;;;;10.57;4.63;;;;;;;7.83;100.00;101453.59;6027774;28;20034;-68
2023/05/28 02:48:38;;;;;;;13.07;5.27;;;;;;;7.79;100.00;101428.38;6028038;28;20038;-67
2023/05/28 02:51:33;;;;;;;12.00;5.40;;;;;;;7.71;100.00;101465.88;6026573;28;20113;-67
2023/05/28 02:54:28;;;;;;;13.43;5.43;;;;;;;8.07;100.00;101449.16;6032114;28;20067;-67
2023/05/28 02:57:23;;;;;;;11.00;5.07;;;;;;;8.43;100.00;101437.72;6032602;28;20022;-67
2023/05/28 03:00:19;;;;;;;13.73;5.17;;;;;;;8.81;100.00;101454.19;6037838;28;20058;-68
2023/05/28 03:03:15;;;;;;;9.82;4.85;;;;;;;8.41;100.00;101452.00;6027379;28;20030;-67
2023/05/28 03:06:10;;;;;;;11.60;4.72;;;;;;;8.81;100.00;101430.38;6024989;28;20098;-67
2023/05/28 03:09:06;;;;;;;12.20;5.18;;;;;;;9.28;100.00;101455.81;6025142;28;20061;-67
2023/05/28 03:12:01;;;;;;;9.20;4.75;;;;;;;9.00;98.17;101440.41;6022441;28;20034;-67
2023/05/28 03:14:56;;;;;;;11.50;4.90;;;;;;;9.10;96.85;101451.97;6026681;28;20034;-67
2023/05/28 03:17:53;;;;;;;8.93;4.43;;;;;;;8.79;98.72;101455.25;6048455;28;20354;-68
2023/05/28 03:20:48;;;;;;;9.63;3.95;;;;;;;9.53;96.67;101442.38;6034989;28;20038;-67
2023/05/28 03:23:43;;;;;;;10.57;4.47;;;;;;;9.80;92.49;101449.91;6025947;28;20430;-68
2023/05/28 03:26:38;;;;;;;7.53;4.07;;;;;;;9.80;91.62;101460.50;6019106;28;20035;-67
2023/05/28 03:29:34;;;;;;;10.80;4.53;;;;;;;10.26;92.20;101460.31;6028369;28;20034;-67
2023/05/28 03:32:29;;;;;;;11.53;5.23;;;;;;;10.44;92.60;101447.31;6024654;28;20014;-68
2023/05/28 03:35:24;;;;;;;13.88;5.28;;;;;;;9.96;93.52;101462.75;6012596;28;20062;-67
2023/05/28 03:38:20;;;;;;;14.80;5.43;;;;;;;9.76;95.83;101444.97;6026218;28;20181;-68
2023/05/28 03:41:15;;;;;;;13.00;5.30;;;;;;;9.92;97.30;101451.56;6016845;28;20030;-67
2023/05/28 03:44:10;;;;;;;9.67;5.03;;;;;;;10.29;96.06;101459.22;6026354;28;20034;-67
2023/05/28 03:47:06;;;;;;;9.50;5.07;;;;;;;9.79;95.03;101452.66;6026816;28;20377;-68
2023/05/28 03:50:02;;;;;;;9.60;4.75;;;;;;;10.03;97.89;101456.84;6025925;28;20327;-67
2023/05/28 03:52:57;;;;;;;10.32;4.63;;;;;;;9.74;96.33;101449.53;6020717;28;20037;-68
2023/05/28 03:55:52;;;;;;;12.07;5.17;;;;;;;9.32;97.90;101457.25;6025892;28;20088;-67
2023/05/28 03:58:48;;;;;;;15.30;5.93;;;;;;;9.31;99.21;101452.94;6026655;28;20458;-67
2023/05/28 04:01:43;;;;;;;15.30;5.57;;;;;;;9.51;100.00;101446.91;6026598;28;20030;-67
2023/05/28 04:04:38;;;;;;;11.90;4.97;;;;;;;10.01;99.75;101440.22;6024360;28;20076;-68
2023/05/28 04:07:34;;;;;;;10.93;5.13;;;;;;;10.45;97.24;101431.31;6026494;28;20266;-67
2023/05/28 04:10:29;;;;;;;12.80;5.72;;;;;;;10.14;94.62;101432.97;6026718;28;20262;-67
2023/05/28 04:13:25;;;;;;;15.70;6.13;;;;;;;9.95;96.79;101427.47;6025010;28;20038;-67
2023/05/28 04:16:22;;;;;;;17.83;6.67;;;;;;;9.86;96.08;101448.56;6026729;28;20029;-68
2023/05/28 04:19:17;;;;;;;15.65;6.53;;;;;;;9.77;97.40;101423.66;6025797;28;20035;-68
2023/05/28 04:22:13;;;;;;;19.17;7.90;;;;;;;10.11;97.06;101424.41;6014324;28;20041;-67
2023/05/28 04:25:08;;;;;;;16.20;7.40;;;;;;;10.69;96.95;101437.22;6025853;28;20069;-68
2023/05/28 04:28:04;;;;;;;18.80;7.67;;;;;;;11.43;91.21;101426.44;6025532;28;20029;-67
2023/05/28 04:31:02;;;;;;;15.73;7.82;;;;;;;11.83;88.46;101438.75;6026426;28;20022;-67
2023/05/28 04:33:57;;;;;;;19.52;7.03;;;;;;;11.87;86.00;101439.34;6023819;28;20036;-70
2023/05/28 04:36:53;;;;;;;15.27;7.43;;;;;;;12.41;85.13;101433.50;6026028;28;20030;-67
2023/05/28 04:39:48;;;;;;;16.83;7.67;;;;;;;12.52;82.95;101409.44;6026217;28;20053;-67
2023/05/28 04:42:43;;;;;;;17.07;8.27;;;;;;;12.95;82.62;101454.19;6024740;28;20534;-69
2023/05/28 04:45:39;;;;;;;15.77;7.13;;;;;;;13.23;80.56;101441.81;6025558;28;20262;-68
2023/05/28 04:48:37;;;;;;;15.50;7.23;;;;;;;13.18;79.41;101457.41;6026086;28;20324;-69
2023/05/28 04:51:33;;;;;;;13.18;7.63;;;;;;;12.77;81.05;101467.41;6025743;28;20030;-67
2023/05/28 04:54:28;;;;;;;14.20;7.23;;;;;;;12.54;82.88;101458.00;6024410;28;20470;-67
2023/05/28 04:57:23;;;;;;;12.90;7.57;;;;;;;12.81;83.73;101449.31;6025348;28;20073;-67
2023/05/28 05:00:20;;;;;;;14.10;6.18;;;;;;;13.42;82.72;101452.41;6026070;28;20788;-67
2023/05/28 05:03:15;;;;;;;12.90;6.47;;;;;;;13.45;82.08;101454.78;6029045;28;20101;-67
2023/05/28 05:06:11;;;;;;;12.43;6.10;;;;;;;13.68;80.18;101448.91;6021723;28;20049;-67
2023/05/28 05:09:06;;;;;;;11.70;5.80;;;;;;;14.12;77.92;101447.25;6025956;28;20053;-67
2023/05/28 05:12:02;;;;;;;12.25;5.70;;;;;;;13.56;79.78;101444.75;6025655;28;20031;-68
2023/05/28 05:14:57;;;;;;;14.30;5.83;;;;;;;13.50;81.62;101456.03;6014474;28;20038;-67
2023/05/28 05:17:53;;;;;;;8.25;5.07;;;;;;;14.20;79.19;101450.00;6025737;28;20309;-66
2023/05/28 05:20:48;;;;;;;12.73;5.83;;;;;;;14.92;75.18;101440.16;6022430;28;20037;-69
2023/05/28 05:23:43;;;;;;;11.40;5.50;;;;;;;14.58;75.96;101432.03;6017658;28;20034;-68
2023/05/28 05:26:39;;;;;;;9.67;5.63;;;;;;;14.64;75.86;101442.09;6025462;28;20262;-66
2023/05/28 05:29:35;;;;;;;12.35;6.18;;;;;;;15.36;75.68;101445.25;6025783;28;20080;-66
2023/05/28 05:32:30;;;;;;;11.25;5.88;;;;;;;15.89;71.11;101444.19;6024985;28;20059;-67
2023/05/28 05:35:26;;;;;;;10.60;6.43;;;;;;;15.62;71.32;101445.28;6024696;28;20113;-67
2023/05/28 05:38:21;;;;;;;11.10;5.93;;;;;;;16.01;69.19;101451.75;6026629;28;20361;-67
2023/05/28 05:41:16;;;;;;;14.90;6.63;;;;;;;15.96;70.34;101437.19;6023287;28;20022;-67
2023/05/28 05:44:12;;;;;;;10.43;6.20;;;;;;;15.39;72.53;101458.31;6023648;28;20084;-67
2023/05/28 05:47:07;;;;;;;11.55;6.05;;;;;;;15.78;73.80;101456.03;6029590;28;20022;-67
2023/05/28 05:50:03;;;;;;;14.63;7.07;;;;;;;16.17;70.60;101450.13;6029877;28;20407;-66
2023/05/28 05:52:59;;;;;;;10.07;6.53;;;;;;;17.35;67.12;101445.91;6033330;28;20113;-68
2023/05/28 05:55:54;;;;;;;12.93;6.70;;;;;;;17.74;66.21;101433.41;6052746;28;20049;-68
2023/05/28 05:58:50;;;;;;;11.55;6.85;;;;;;;18.73;62.44;101428.06;6041075;28;20141;-67
2023/05/28 06:01:45;;;;;;;14.07;6.20;;;;;;;19.40;59.38;101426.25;6029623;28;20042;-67
2023/05/28 06:04:40;;;;;;;13.30;6.80;;;;;;;20.00;56.97;101435.91;6029492;28;20038;-68
2023/05/28 06:07:36;;;;;;;10.98;5.80;;;;;;;19.89;53.19;101433.69;6029506;28;20065;-68
2023/05/28 06:10:31;;;;;;;11.00;5.23;;;;;;;20.07;49.19;101432.25;6020705;28;20030;-68
2023/05/28 06:13:27;;;;;;;11.93;5.50;;;;;;;20.97;46.84;101439.75;6026746;28;20376;-68
2023/05/28 06:16:22;;;;;;;14.20;5.60;;;;;;;20.57;48.46;101455.59;6031818;28;20462;-68
2023/05/28 06:19:18;;;;;;;14.47;5.50;;;;;;;20.08;49.29;101439.28;6028439;28;20041;-68
2023/05/28 06:22:13;;;;;;;11.20;5.18;;;;;;;20.60;48.27;101432.84;6028826;28;20101;-68
2023/05/28 06:25:08;;;;;;;7.73;5.10;;;;;;;19.64;50.22;101441.25;6028173;28;20354;-68
2023/05/28 06:28:04;;;;;;;12.30;4.50;;;;;;;19.75;49.83;101438.09;6028909;28;20030;-68
2023/05/28 06:30:59;;;;;;;9.68;3.95;;;;;;;19.33;47.01;101444.09;6027050;28;20785;-68
2023/05/28 06:33:54;;;;;;;7.73;4.40;;;;;;;19.40;49.43;101438.84;6027995;28;20469;-68
2023/05/28 06:36:50;;;;;;;10.65;4.45;;;;;;;20.74;46.97;101443.50;6028607;28;20026;-68
2023/05/28 06:39:45;;;;;;;5.90;3.30;;;;;;;22.05;40.87;101439.97;6028340;28;20077;-68
2023/05/28 06:42:40;;;;;;;10.27;4.70;;;;;;;18.72;47.41;101447.91;6015425;28;20378;-68
2023/05/28 06:45:36;;;;;;;8.35;4.00;;;;;;;19.20;48.35;101443.06;6026287;28;20045;-68
2023/05/28 06:48:31;;;;;;;7.20;3.20;;;;;;;19.64;44.62;101435.03;6028662;28;20034;-68
2023/05/28 06:51:26;;;;;;;7.97;4.40;;;;;;;19.26;46.79;101436.97;6021736;28;20748;-68
2023/05/28 06:54:22;;;;;;;9.23;3.80;;;;;;;18.89;48.08;101435.97;6019648;28;20046;-68
2023/05/28 06:57:17;;;;;;;10.20;3.73;;;;;;;18.71;49.49;101459.66;6028395;28;20033;-68
2023/05/28 07:00:16;;;;;;;9.30;3.73;;;;;;;19.53;47.56;101439.03;6025874;28;20374;-68
2023/05/28 07:03:12;;;;;;;8.10;3.03;;;;;;;18.59;47.65;101458.41;6027364;28;20022;-68
2023/05/28 07:06:07;;;;;;;7.33;3.20;;;;;;;19.41;47.27;101457.50;6027516;28;20034;-68
2023/05/28 07:09:02;;;;;;;9.43;4.00;;;;;;;18.90;47.80;101453.78;6027693;28;20038;-68
2023/05/28 07:11:58;;;;;;;9.52;3.60;;;;;;;19.43;46.90;101443.88;6023707;28;20039;-68
2023/05/28 07:14:53;;;;;;;6.93;3.30;;;;;;;19.08;47.38;101450.75;6027014;28;20035;-68
2023/05/28 07:17:49;;;;;;;8.90;3.53;;;;;;;19.18;47.03;101453.19;6027845;28;20026;-68
2023/05/28 07:20:44;;;;;;;5.75;2.83;;;;;;;20.42;43.40;101460.22;6027597;28;20537;-68
2023/05/28 07:23:40;;;;;;;8.10;2.90;;;;;;;20.16;43.91;101447.25;6014934;28;20031;-68
2023/05/28 07:26:35;;;;;;;4.90;2.47;;;;;;;20.14;44.47;101437.69;6027587;28;20041;-68
2023/05/28 07:29:30;;;;;;;9.70;3.60;;;;;;;20.59;43.56;101436.53;6027021;28;20621;-68
2023/05/28 07:32:26;;;;;;;7.80;3.00;;;;;;;20.77;42.55;101442.28;6014482;28;20165;-67
2023/05/28 07:35:22;;;;;;;7.10;2.90;;;;;;;19.81;45.05;101458.84;6018971;28;20037;-68
2023/05/28 07:38:17;;;;;;;9.00;3.58;;;;;;;20.22;45.74;101461.00;6029906;28;20041;-68
2023/05/28 07:41:13;;;;;;;7.70;3.03;;;;;;;20.70;43.87;101449.50;6029937;28;20038;-68
2023/05/28 07:44:08;;;;;;;9.23;2.80;;;;;;;20.24;44.78;101448.19;6020904;28;20048;-68
2023/05/28 07:47:13;;;;;;;5.67;2.67;;;;;;;21.09;42.78;101440.94;6024250;28;20030;-68
2023/05/28 07:50:09;;;;;;;5.38;2.45;;;;;;;21.64;41.84;101442.69;6028383;28;20058;-68
2023/05/28 07:53:05;;;;;;;5.32;2.90;;;;;;;21.47;40.86;101447.59;6010637;28;20034;-68
2023/05/28 07:56:01;;;;;;;5.07;2.35;;;;;;;21.75;39.77;101439.44;6026315;28;20049;-68
2023/05/28 07:58:56;;;;;;;6.57;2.77;;;;;;;21.12;39.85;101433.25;6021840;28;20056;-68
2023/05/28 08:01:51;;;;;;;7.90;2.30;;;;;;;21.81;40.10;101435.94;6025946;28;20355;-68
2023/05/28 08:04:48;;;;;;;7.00;2.70;;;;;;;22.11;39.62;101444.59;6017991;28;20492;-68
2023/05/28 08:07:44;;;;;;;5.28;2.28;;;;;;;21.53;38.63;101432.47;6022781;28;20374;-68
2023/05/28 08:10:40;;;;;;;5.80;2.45;;;;;;;21.77;38.25;101442.75;6022250;28;20038;-68
2023/05/28 08:13:35;;;;;;;5.20;2.45;;;;;;;21.41;39.29;101428.69;6022730;28;20035;-68
2023/05/28 08:16:30;;;;;;;6.07;2.40;;;;;;;21.86;39.24;101436.16;6014210;28;20041;-68
2023/05/28 08:19:26;;;;;;;7.60;2.10;;;;;;;22.49;37.62;101419.50;6024794;28;20034;-68
2023/05/28 08:22:21;;;;;;;5.07;2.40;;;;;;;22.71;37.02;101430.16;6014335;28;20065;-69
2023/05/28 08:25:17;;;;;;;4.17;1.97;;;;;;;22.82;38.08;101434.94;6025830;28;20030;-68
2023/05/28 08:28:13;;;;;;;5.10;2.30;;;;;;;22.54;37.20;101414.31;6017089;28;20025;-69
2023/05/28 08:31:08;;;;;;;4.50;1.88;;;;;;;22.45;36.26;101437.16;6015545;28;20273;-69
2023/05/28 08:34:04;;;;;;;4.97;2.23;;;;;;;21.95;37.22;101429.59;6021434;28;20133;-68
2023/05/28 08:36:59;;;;;;;5.00;2.15;;;;;;;22.06;38.75;101429.00;6033762;28;20078;-67
2023/05/28 08:39:54;;;;;;;4.40;1.80;;;;;;;22.11;35.39;101425.66;6026859;28;20045;-68
2023/05/28 08:42:50;;;;;;;5.23;2.10;;;;;;;22.23;36.43;101426.75;6018408;28;20296;-68
2023/05/28 08:45:45;;;;;;;6.80;2.20;;;;;;;22.35;37.43;101425.94;6020765;28;20069;-68
2023/05/28 08:48:41;;;;;;;4.20;1.90;;;;;;;22.24;36.72;101418.44;6024659;28;20324;-69
2023/05/28 08:51:37;;;;;;;4.45;2.15;;;;;;;22.66;36.24;101419.13;6021960;28;20030;-68
2023/05/28 08:54:33;;;;;;;4.85;1.90;;;;;;;22.49;37.18;101416.81;6041569;28;20032;-68
2023/05/28 08:57:29;;;;;;;4.95;2.00;;;;;;;22.68;36.62;101423.28;6029822;28;20458;-68
2023/05/28 09:00:25;;;;;;;4.20;1.90;;;;;;;22.43;35.29;101406.81;6015398;28;20049;-68
2023/05/28 09:03:20;;;;;;;4.13;1.88;;;;;;;21.97;35.77;101414.00;6023389;28;20099;-68
2023/05/28 09:06:16;;;;;;;4.43;2.10;;;;;;;22.04;36.05;101412.13;6021458;28;20038;-68
2023/05/28 09:09:11;;;;;;;8.20;2.40;;;;;;;22.74;34.87;101429.75;6036781;28;20030;-68
2023/05/28 09:12:11;;;;;;;3.90;1.90;;;;;;;23.00;34.35;101410.78;6022364;28;20409;-69
2023/05/28 09:15:07;;;;;;;4.93;1.70;;;;;;;22.90;34.33;101404.97;6027352;28;20046;-68
2023/05/28 09:18:04;;;;;;;3.47;1.80;;;;;;;23.53;32.30;101400.72;6030148;28;20085;-69
2023/05/28 09:21:00;;;;;;;6.68;1.80;;;;;;;23.86;32.34;101392.44;6027349;28;20040;-69
2023/05/28 09:23:56;;;;;;;4.68;2.03;;;;;;;23.78;31.14;101411.66;6029553;28;20476;-69
2023/05/28 09:26:54;;;;;;;4.63;1.80;;;;;;;24.08;30.43;101380.22;6029699;28;20114;-69
2023/05/28 09:29:49;;;;;;;7.25;2.03;;;;;;;24.05;30.49;101395.00;6028622;28;20469;-68
2023/05/28 09:32:45;;;;;;;5.53;1.67;;;;;;;23.45;32.89;101396.38;6030046;28;20030;-69
2023/05/28 09:35:40;;;;;;;4.80;1.70;;;;;;;23.96;32.18;101403.63;6022173;28;20030;-69
2023/05/28 09:38:39;;;;;;;4.40;1.70;;;;;;;24.06;30.73;101396.69;6027307;28;20065;-68
2023/05/28 09:41:36;;;;;;;;;;;;;;;24.21;30.64;101399.97;6029898;28;20289;-69
2023/05/28 09:44:32;;;;;;;4.40;1.70;;;;;;;23.72;32.83;101385.41;6027074;28;20313;-69
2023/05/28 09:47:28;;;;;;;5.60;1.80;;;;;;;23.84;31.85;101394.50;6028975;28;20484;-68
2023/05/28 09:50:23;;;;;;;9.07;2.37;;;;;;;24.16;30.91;101372.66;6029746;28;20037;-68
2023/05/28 09:53:18;;;;;;;4.17;1.60;;;;;;;23.56;31.54;101401.09;6023015;28;20112;-69
2023/05/28 09:56:14;;;;;;;6.90;1.98;;;;;;;23.84;31.13;101397.22;6018609;28;20309;-69
2023/05/28 09:59:10;;;;;;;4.70;2.00;;;;;;;23.83;31.07;101391.00;6018304;28;20026;-68
2023/05/28 10:02:18;;;;;;;7.68;1.83;;;;;;;24.38;29.95;101386.69;6024833;28;20020;-69
2023/05/28 10:05:13;;;;;;;4.07;1.80;;;;;;;24.51;31.08;101373.06;6024213;28;20034;-68
2023/05/28 10:08:11;;;;;;;6.43;2.00;;;;;;;24.73;30.30;101366.16;6028367;28;20044;-69
2023/05/28 10:11:13;;;;;;;5.43;1.83;;;;;;;24.60;29.45;101369.00;6023515;28;20386;-69
2023/05/28 10:14:09;;;;;;;5.10;1.80;;;;;;;24.85;29.85;101360.88;6024804;28;20030;-69
2023/05/28 10:17:06;;;;;;;4.65;1.75;;;;;;;24.24;30.26;101360.75;6011674;28;20031;-69
2023/05/28 10:20:04;;;;;;;5.18;1.90;;;;;;;25.00;30.91;101357.81;6042209;28;20121;-68
2023/05/28 10:23:00;;;;;;;5.63;1.90;;;;;;;25.01;30.38;101345.88;6018619;28;20410;-69
2023/05/28 10:25:55;;;;;;;4.90;2.10;;;;;;;24.43;31.30;101362.47;6039746;28;20146;-69
2023/05/28 10:28:55;;;;;;;6.35;1.80;;;;;;;24.17;31.95;101368.06;6023550;28;20065;-69
2023/05/28 10:32:02;;;;;;;4.57;2.00;;;;;;;24.33;31.29;101356.69;6023274;28;20109;-69
2023/05/28 10:35:03;;;;;;;3.70;1.80;;;;;;;25.02;30.31;101364.66;6019906;28;20078;-68
2023/05/28 10:38:06;;;;;;;4.00;1.73;;;;;;;25.37;29.32;101360.31;6025444;28;20069;-69
2023/05/28 10:41:02;;;;;;;4.13;1.83;;;;;;;25.31;29.67;101360.38;6017305;28;20038;-69
2023/05/28 10:44:05;;;;;;;3.38;1.70;;;;;;;24.61;30.18;101348.13;6026791;28;20035;-69
2023/05/28 10:47:04;;;;;;;6.45;2.10;;;;;;;25.26;29.84;101365.66;6022115;28;20474;-69
2023/05/28 10:50:08;;;;;;;3.97;2.30;;;;;;;25.83;28.65;101361.63;6023114;28;20113;-69
2023/05/28 10:53:07;;;;;;;5.25;1.98;;;;;;;25.62;29.63;101352.09;6028029;28;20351;-69
2023/05/28 10:56:03;;;;;;;4.47;2.00;;;;;;;25.90;29.66;101354.22;6026927;28;20355;-69
2023/05/28 10:58:58;;;;;;;3.47;1.93;;;;;;;25.83;28.49;101356.19;6026288;28;20092;-69
2023/05/28 11:02:02;;;;;;;5.43;1.97;;;;;;;26.10;28.63;101359.34;6038985;28;20313;-69
2023/05/28 11:05:00;;;;;;;3.67;1.90;;;;;;;26.56;29.47;101354.00;6026182;28;20046;-70
2023/05/28 11:07:56;;;;;;;8.13;2.13;;;;;;;26.35;28.88;101349.97;6029960;28;20039;-69
2023/05/28 11:10:52;;;;;;;3.80;1.70;;;;;;;26.47;28.72;101350.00;6033954;28;20030;-68
2023/05/28 11:13:48;;;;;;;5.57;2.03;;;;;;;26.48;29.15;101367.97;6021812;28;20038;-68
2023/05/28 11:16:43;;;;;;;4.35;1.92;;;;;;;25.21;29.17;101343.78;6026920;28;21004;-69
2023/05/28 11:19:41;;;;;;;4.90;2.10;;;;;;;25.04;30.92;101348.16;6027895;28;20034;-68
2023/05/28 11:22:36;;;;;;;5.35;1.95;;;;;;;25.01;30.89;101349.44;6022020;28;20105;-69
2023/05/28 11:25:31;;;;;;;5.83;2.00;;;;;;;25.10;30.49;101368.97;6023095;28;20038;-69
2023/05/28 11:28:27;;;;;;;4.67;2.23;;;;;;;24.75;30.30;101346.97;6026643;28;20030;-69
2023/05/28 11:31:22;;;;;;;6.50;2.25;;;;;;;24.92;31.92;101352.66;6027280;28;20029;-69
2023/05/28 11:34:19;;;;;;;4.30;1.80;;;;;;;25.25;30.60;101353.94;6021256;28;20471;-69
2023/05/28 11:37:15;;;;;;;5.60;2.15;;;;;;;24.99;32.86;101335.25;6026827;28;20038;-69
2023/05/28 11:40:13;;;;;;;6.05;1.83;;;;;;;25.19;30.82;101356.75;6010670;28;20077;-69
2023/05/28 11:43:08;;;;;;;5.53;2.20;;;;;;;25.38;30.41;101353.00;6019373;28;20133;-69
2023/05/28 11:46:05;;;;;;;3.67;1.63;;;;;;;26.54;28.36;101329.78;6013137;28;20473;-69
2023/05/28 11:49:02;;;;;;;5.30;1.77;;;;;;;26.38;28.87;101340.53;6019500;28;20054;-69
2023/05/28 11:51:57;;;;;;;4.47;2.10;;;;;;;26.44;28.66;101328.72;6022334;28;20385;-69
2023/05/28 11:54:57;;;;;;;5.75;2.10;;;;;;;25.45;29.92;101332.00;6021487;28;20034;-69
2023/05/28 11:57:54;;;;;;;3.45;1.63;;;;;;;25.62;30.79;101335.78;6024852;28;20041;-69
2023/05/28 12:00:55;;;;;;;3.25;1.73;;;;;;;26.21;29.83;101325.94;6036018;28;20041;-69
2023/05/28 12:03:50;;;;;;;6.40;2.08;;;;;;;26.03;29.19;101333.09;6026391;28;20137;-69
2023/05/28 12:06:53;;;;;;;5.67;2.00;;;;;;;25.78;30.61;101346.00;6024757;28;20027;-69
2023/05/28 12:09:49;;;;;;;5.65;1.63;;;;;;;25.62;30.77;101324.06;6012989;28;20034;-69
2023/05/28 12:12:46;;;;;;;6.73;2.10;;;;;;;25.49;29.66;101324.25;6019550;28;20034;-69
2023/05/28 12:15:42;;;;;;;3.80;1.92;;;;;;;26.02;30.49;101328.72;6027701;28;20754;-67
2023/05/28 12:18:41;;;;;;;7.10;2.22;;;;;;;25.69;29.90;101325.63;6035572;28;20041;-68
2023/05/28 12:21:37;;;;;;;4.97;2.08;;;;;;;25.51;30.48;101322.97;6026105;28;20033;-68
2023/05/28 12:24:32;;;;;;;4.17;1.97;;;;;;;25.92;30.89;101317.59;6020967;28;20038;-68
2023/05/28 12:27:27;;;;;;;4.33;2.20;;;;;;;25.85;30.64;101318.72;6022570;28;20282;-68
2023/05/28 12:30:22;;;;;;;5.30;2.00;;;;;;;26.20;29.21;101321.56;6023600;28;20038;-68
2023/05/28 12:33:19;;;;;;;6.30;1.90;;;;;;;25.75;29.24;101319.28;6019254;28;20135;-68
2023/05/28 12:36:14;;;;;;;4.53;1.90;;;;;;;25.72;28.73;101302.59;6025586;28;20478;-69
2023/05/28 12:39:10;;;;;;;5.75;2.08;;;;;;;25.98;29.07;101297.59;6022079;28;20041;-68
2023/05/28 12:42:06;;;;;;;4.00;1.67;;;;;;;26.34;29.34;101306.66;6022379;28;20737;-69
2023/05/28 12:45:02;;;;;;;5.32;2.17;;;;;;;25.75;29.14;101294.81;6022132;28;20406;-69
2023/05/28 12:47:57;;;;;;;3.45;1.60;;;;;;;26.21;29.31;101315.06;6025152;28;20049;-69
2023/05/28 12:50:52;;;;;;;6.43;2.30;;;;;;;25.78;29.41;101301.69;6023426;28;20481;-68
2023/05/28 12:53:47;;;;;;;5.17;2.30;;;;;;;26.08;29.86;101296.22;6029482;28;20030;-68
2023/05/28 12:56:43;;;;;;;4.77;2.07;;;;;;;26.08;28.78;101298.94;6017764;28;20100;-69
2023/05/28 12:59:38;;;;;;;5.90;2.47;;;;;;;25.71;30.25;101296.34;6025367;28;20478;-68
2023/05/28 13:02:33;;;;;;;5.43;2.27;;;;;;;25.87;30.32;101305.75;6028122;28;20042;-69
2023/05/28 13:05:32;;;;;;;6.13;2.55;;;;;;;26.25;29.81;101287.19;6048895;28;20018;-68
2023/05/28 13:08:28;;;;;;;4.97;2.25;;;;;;;26.08;29.74;101272.56;6031444;28;20030;-69
2023/05/28 13:11:23;;;;;;;4.83;1.80;;;;;;;26.28;29.62;101280.44;6025677;28;20373;-69
2023/05/28 13:14:18;;;;;;;7.17;2.20;;;;;;;25.75;30.34;101275.81;6024416;28;20042;-68
2023/05/28 13:17:14;;;;;;;5.80;1.97;;;;;;;25.98;29.82;101270.41;6024842;28;20268;-68
2023/05/28 13:20:10;;;;;;;5.67;1.90;;;;;;;25.85;29.66;101276.06;6025968;28;20028;-68
2023/05/28 13:23:05;;;;;;;3.90;1.98;;;;;;;25.85;30.44;101261.63;6023010;28;20298;-68
2023/05/28 13:26:00;;;;;;;6.57;2.10;;;;;;;25.54;29.13;101272.78;6022305;28;20046;-68
2023/05/28 13:28:56;;;;;;;6.17;1.93;;;;;;;26.47;29.50;101273.81;6020761;28;20026;-68
2023/05/28 13:31:51;;;;;;;3.67;1.77;;;;;;;26.81;28.64;101261.25;6025542;28;20516;-68
2023/05/28 13:34:46;;;;;;;7.20;2.08;;;;;;;27.22;27.53;101263.78;6015991;28;20049;-68